LFPM 101030Z AUTO 27011KT CAVOK 09/07 Q1028